sensor_id;sensor_type;location;lat;lon;timestamp;P1;durP1;ratioP1;P2;durP2;ratioP2
13849;SDS011;6995;52.618;13.488;2023-04-08T00:02:12;47.87;;;43.40;;
13849;SDS011;6995;52.618;13.488;2023-04-08T00:04:40;52.70;;;48.17;;
13849;SDS011;6995;52.618;13.488;2023-04-08T00:07:06;57.23;;;52.60;;
13849;SDS011;6995;52.618;13.488;2023-04-08T00:09:45;55.03;;;49.83;;
13849;SDS011;6995;52.618;13.488;2023-04-08T00:12:11;50.10;;;45.57;;
13849;SDS011;6995;52.618;13.488;2023-04-08T00:14:37;54.03;;;49.30;;
13849;SDS011;6995;52.618;13.488;2023-04-08T00:17:09;54.60;;;49.23;;
13849;SDS011;6995;52.618;13.488;2023-04-08T00:19:39;47.33;;;42.57;;
13849;SDS011;6995;52.618;13.488;2023-04-08T00:22:10;51.63;;;46.77;;
13849;SDS011;6995;52.618;13.488;2023-04-08T00:24:37;50.50;;;45.60;;
13849;SDS011;6995;52.618;13.488;2023-04-08T00:27:10;51.07;;;46.33;;
13849;SDS011;6995;52.618;13.488;2023-04-08T00:29:39;54.17;;;49.37;;
13849;SDS011;6995;52.618;13.488;2023-04-08T00:32:10;51.37;;;46.40;;
13849;SDS011;6995;52.618;13.488;2023-04-08T00:34:41;58.00;;;52.57;;
13849;SDS011;6995;52.618;13.488;2023-04-08T00:37:08;50.87;;;45.50;;
13849;SDS011;6995;52.618;13.488;2023-04-08T00:39:35;52.77;;;47.80;;
13849;SDS011;6995;52.618;13.488;2023-04-08T00:42:07;57.93;;;46.87;;
13849;SDS011;6995;52.618;13.488;2023-04-08T00:44:35;56.07;;;50.27;;
13849;SDS011;6995;52.618;13.488;2023-04-08T00:47:02;50.67;;;45.60;;
13849;SDS011;6995;52.618;13.488;2023-04-08T00:49:59;51.93;;;46.90;;
13849;SDS011;6995;52.618;13.488;2023-04-08T00:52:35;65.07;;;59.13;;
13849;SDS011;6995;52.618;13.488;2023-04-08T01:08:39;57.50;;;51.90;;
13849;SDS011;6995;52.618;13.488;2023-04-08T01:11:08;52.20;;;46.57;;
13849;SDS011;6995;52.618;13.488;2023-04-08T01:13:51;48.87;;;42.10;;
13849;SDS011;6995;52.618;13.488;2023-04-08T01:16:21;55.70;;;49.63;;
13849;SDS011;6995;52.618;13.488;2023-04-08T01:26:03;49.93;;;41.43;;
13849;SDS011;6995;52.618;13.488;2023-04-08T01:29:03;51.80;;;42.00;;
13849;SDS011;6995;52.618;13.488;2023-04-08T01:31:52;46.60;;;41.83;;
13849;SDS011;6995;52.618;13.488;2023-04-08T01:34:21;48.87;;;43.77;;
13849;SDS011;6995;52.618;13.488;2023-04-08T01:37:19;51.30;;;46.17;;
13849;SDS011;6995;52.618;13.488;2023-04-08T01:43:54;42.90;;;38.33;;
13849;SDS011;6995;52.618;13.488;2023-04-08T01:49:03;53.03;;;44.07;;
13849;SDS011;6995;52.618;13.488;2023-04-08T01:51:33;45.17;;;39.67;;
13849;SDS011;6995;52.618;13.488;2023-04-08T01:54:08;49.40;;;44.43;;
13849;SDS011;6995;52.618;13.488;2023-04-08T01:56:52;47.00;;;40.00;;
13849;SDS011;6995;52.618;13.488;2023-04-08T01:59:34;46.60;;;40.60;;
13849;SDS011;6995;52.618;13.488;2023-04-08T02:02:38;51.00;;;44.50;;
13849;SDS011;6995;52.618;13.488;2023-04-08T02:05:32;46.40;;;41.40;;
13849;SDS011;6995;52.618;13.488;2023-04-08T02:13:21;59.73;;;53.67;;
13849;SDS011;6995;52.618;13.488;2023-04-08T02:26:15;49.53;;;43.70;;
13849;SDS011;6995;52.618;13.488;2023-04-08T02:28:43;50.30;;;40.40;;
13849;SDS011;6995;52.618;13.488;2023-04-08T02:31:15;47.20;;;42.10;;
13849;SDS011;6995;52.618;13.488;2023-04-08T02:37:34;47.70;;;41.97;;
13849;SDS011;6995;52.618;13.488;2023-04-08T02:52:40;57.17;;;45.93;;
13849;SDS011;6995;52.618;13.488;2023-04-08T02:55:18;52.03;;;44.13;;
13849;SDS011;6995;52.618;13.488;2023-04-08T02:58:30;47.30;;;39.77;;
13849;SDS011;6995;52.618;13.488;2023-04-08T03:10:14;55.93;;;49.33;;
13849;SDS011;6995;52.618;13.488;2023-04-08T03:36:37;51.53;;;46.00;;
13849;SDS011;6995;52.618;13.488;2023-04-08T03:39:03;53.33;;;47.53;;
13849;SDS011;6995;52.618;13.488;2023-04-08T03:41:51;56.60;;;50.00;;
13849;SDS011;6995;52.618;13.488;2023-04-08T03:55:06;49.10;;;43.67;;
13849;SDS011;6995;52.618;13.488;2023-04-08T04:45:12;54.20;;;46.37;;
13849;SDS011;6995;52.618;13.488;2023-04-08T04:47:57;64.17;;;53.77;;
13849;SDS011;6995;52.618;13.488;2023-04-08T04:51:24;53.50;;;43.30;;
13849;SDS011;6995;52.618;13.488;2023-04-08T04:54:45;54.43;;;47.00;;
13849;SDS011;6995;52.618;13.488;2023-04-08T05:01:17;55.67;;;48.83;;
13849;SDS011;6995;52.618;13.488;2023-04-08T05:04:16;54.07;;;46.10;;
13849;SDS011;6995;52.618;13.488;2023-04-08T05:07:00;52.30;;;46.07;;
13849;SDS011;6995;52.618;13.488;2023-04-08T05:10:19;55.87;;;46.07;;
13849;SDS011;6995;52.618;13.488;2023-04-08T05:26:15;56.73;;;44.83;;
13849;SDS011;6995;52.618;13.488;2023-04-08T05:29:26;55.00;;;44.70;;
13849;SDS011;6995;52.618;13.488;2023-04-08T05:37:53;64.40;;;56.10;;
13849;SDS011;6995;52.618;13.488;2023-04-08T05:48:34;61.67;;;48.73;;
13849;SDS011;6995;52.618;13.488;2023-04-08T06:02:36;66.53;;;48.27;;
13849;SDS011;6995;52.618;13.488;2023-04-08T06:05:10;67.33;;;50.97;;
13849;SDS011;6995;52.618;13.488;2023-04-08T06:08:01;64.40;;;47.20;;
13849;SDS011;6995;52.618;13.488;2023-04-08T06:10:33;65.33;;;52.63;;
13849;SDS011;6995;52.618;13.488;2023-04-08T06:13:02;60.07;;;44.37;;
13849;SDS011;6995;52.618;13.488;2023-04-08T06:15:41;63.33;;;47.87;;
13849;SDS011;6995;52.618;13.488;2023-04-08T06:18:42;69.40;;;45.43;;
13849;SDS011;6995;52.618;13.488;2023-04-08T06:21:35;64.23;;;47.47;;
13849;SDS011;6995;52.618;13.488;2023-04-08T06:26:52;62.50;;;48.17;;
13849;SDS011;6995;52.618;13.488;2023-04-08T06:30:00;62.93;;;47.83;;
13849;SDS011;6995;52.618;13.488;2023-04-08T06:32:44;64.60;;;47.00;;
13849;SDS011;6995;52.618;13.488;2023-04-08T06:35:13;63.33;;;49.67;;
13849;SDS011;6995;52.618;13.488;2023-04-08T06:37:49;62.73;;;46.57;;
13849;SDS011;6995;52.618;13.488;2023-04-08T06:40:24;74.50;;;51.17;;
13849;SDS011;6995;52.618;13.488;2023-04-08T06:42:53;68.20;;;48.03;;
13849;SDS011;6995;52.618;13.488;2023-04-08T06:45:29;70.47;;;53.03;;
13849;SDS011;6995;52.618;13.488;2023-04-08T06:48:06;68.20;;;46.33;;
13849;SDS011;6995;52.618;13.488;2023-04-08T06:50:37;61.13;;;47.07;;
13849;SDS011;6995;52.618;13.488;2023-04-08T06:53:10;66.47;;;45.77;;
13849;SDS011;6995;52.618;13.488;2023-04-08T06:55:42;73.23;;;53.17;;
13849;SDS011;6995;52.618;13.488;2023-04-08T06:58:11;65.10;;;48.53;;
13849;SDS011;6995;52.618;13.488;2023-04-08T07:00:41;60.83;;;44.50;;
13849;SDS011;6995;52.618;13.488;2023-04-08T07:03:09;70.57;;;50.30;;
13849;SDS011;6995;52.618;13.488;2023-04-08T07:05:35;65.60;;;46.80;;
13849;SDS011;6995;52.618;13.488;2023-04-08T07:08:09;58.30;;;44.73;;
13849;SDS011;6995;52.618;13.488;2023-04-08T07:10:35;60.53;;;46.20;;
13849;SDS011;6995;52.618;13.488;2023-04-08T07:13:08;65.73;;;48.30;;
13849;SDS011;6995;52.618;13.488;2023-04-08T07:15:37;58.93;;;46.87;;
13849;SDS011;6995;52.618;13.488;2023-04-08T07:18:03;62.30;;;46.10;;
13849;SDS011;6995;52.618;13.488;2023-04-08T07:20:32;58.73;;;47.13;;
13849;SDS011;6995;52.618;13.488;2023-04-08T07:23:04;69.17;;;48.97;;
13849;SDS011;6995;52.618;13.488;2023-04-08T07:25:29;62.50;;;45.90;;
13849;SDS011;6995;52.618;13.488;2023-04-08T07:27:57;56.87;;;46.10;;
13849;SDS011;6995;52.618;13.488;2023-04-08T07:30:23;64.63;;;47.63;;
13849;SDS011;6995;52.618;13.488;2023-04-08T07:32:54;54.13;;;46.53;;
13849;SDS011;6995;52.618;13.488;2023-04-08T07:35:24;65.87;;;49.83;;
13849;SDS011;6995;52.618;13.488;2023-04-08T07:38:01;57.73;;;49.87;;
13849;SDS011;6995;52.618;13.488;2023-04-08T07:40:36;63.23;;;53.00;;
13849;SDS011;6995;52.618;13.488;2023-04-08T07:43:05;59.33;;;45.47;;
13849;SDS011;6995;52.618;13.488;2023-04-08T07:45:40;55.60;;;45.27;;
13849;SDS011;6995;52.618;13.488;2023-04-08T07:48:09;62.63;;;48.27;;
13849;SDS011;6995;52.618;13.488;2023-04-08T07:50:38;64.47;;;52.10;;
13849;SDS011;6995;52.618;13.488;2023-04-08T07:53:04;62.10;;;47.20;;
13849;SDS011;6995;52.618;13.488;2023-04-08T07:55:35;58.17;;;51.53;;
13849;SDS011;6995;52.618;13.488;2023-04-08T07:58:04;52.97;;;45.63;;
13849;SDS011;6995;52.618;13.488;2023-04-08T08:00:30;52.17;;;44.83;;
13849;SDS011;6995;52.618;13.488;2023-04-08T08:03:04;56.57;;;43.77;;
13849;SDS011;6995;52.618;13.488;2023-04-08T08:05:32;51.50;;;46.10;;
13849;SDS011;6995;52.618;13.488;2023-04-08T08:08:01;52.17;;;43.27;;
13849;SDS011;6995;52.618;13.488;2023-04-08T08:10:31;56.77;;;47.57;;
13849;SDS011;6995;52.618;13.488;2023-04-08T08:13:13;52.20;;;43.67;;
13849;SDS011;6995;52.618;13.488;2023-04-08T08:15:42;55.27;;;42.47;;
13849;SDS011;6995;52.618;13.488;2023-04-08T08:18:25;60.37;;;53.00;;
13849;SDS011;6995;52.618;13.488;2023-04-08T08:21:07;57.23;;;45.17;;
13849;SDS011;6995;52.618;13.488;2023-04-08T08:23:59;56.93;;;48.33;;
13849;SDS011;6995;52.618;13.488;2023-04-08T08:26:38;56.97;;;46.13;;
13849;SDS011;6995;52.618;13.488;2023-04-08T08:29:15;54.40;;;45.00;;
13849;SDS011;6995;52.618;13.488;2023-04-08T08:31:47;56.17;;;44.67;;
13849;SDS011;6995;52.618;13.488;2023-04-08T08:34:16;54.53;;;42.80;;
13849;SDS011;6995;52.618;13.488;2023-04-08T08:36:46;53.07;;;45.33;;
13849;SDS011;6995;52.618;13.488;2023-04-08T08:39:12;51.80;;;43.17;;
13849;SDS011;6995;52.618;13.488;2023-04-08T08:41:41;56.60;;;44.83;;
13849;SDS011;6995;52.618;13.488;2023-04-08T08:44:15;68.37;;;59.10;;
13849;SDS011;6995;52.618;13.488;2023-04-08T08:46:44;53.70;;;42.30;;
13849;SDS011;6995;52.618;13.488;2023-04-08T08:49:12;62.47;;;49.23;;
13849;SDS011;6995;52.618;13.488;2023-04-08T08:51:46;53.23;;;45.30;;
13849;SDS011;6995;52.618;13.488;2023-04-08T08:54:18;53.20;;;45.43;;
13849;SDS011;6995;52.618;13.488;2023-04-08T08:56:44;53.37;;;45.23;;
13849;SDS011;6995;52.618;13.488;2023-04-08T08:59:09;57.53;;;46.20;;
13849;SDS011;6995;52.618;13.488;2023-04-08T09:01:36;55.17;;;45.70;;
13849;SDS011;6995;52.618;13.488;2023-04-08T09:10:02;55.43;;;49.23;;
13849;SDS011;6995;52.618;13.488;2023-04-08T09:12:32;60.10;;;46.70;;
13849;SDS011;6995;52.618;13.488;2023-04-08T09:15:05;54.60;;;49.07;;
13849;SDS011;6995;52.618;13.488;2023-04-08T09:17:39;49.33;;;43.53;;
13849;SDS011;6995;52.618;13.488;2023-04-08T09:20:08;70.40;;;51.13;;
13849;SDS011;6995;52.618;13.488;2023-04-08T09:25:34;63.60;;;51.27;;
13849;SDS011;6995;52.618;13.488;2023-04-08T09:28:03;52.47;;;47.43;;
13849;SDS011;6995;52.618;13.488;2023-04-08T09:30:29;52.43;;;47.47;;
13849;SDS011;6995;52.618;13.488;2023-04-08T09:32:56;55.30;;;49.93;;
13849;SDS011;6995;52.618;13.488;2023-04-08T09:35:25;66.60;;;59.93;;
13849;SDS011;6995;52.618;13.488;2023-04-08T09:37:51;59.33;;;53.17;;
13849;SDS011;6995;52.618;13.488;2023-04-08T09:40:17;57.10;;;51.30;;
13849;SDS011;6995;52.618;13.488;2023-04-08T09:42:43;49.47;;;44.87;;
13849;SDS011;6995;52.618;13.488;2023-04-08T09:45:12;53.37;;;48.90;;
13849;SDS011;6995;52.618;13.488;2023-04-08T09:50:30;43.20;;;39.33;;
13849;SDS011;6995;52.618;13.488;2023-04-08T09:53:01;46.07;;;41.73;;
13849;SDS011;6995;52.618;13.488;2023-04-08T09:55:50;43.77;;;39.57;;
13849;SDS011;6995;52.618;13.488;2023-04-08T09:58:21;47.07;;;42.47;;
13849;SDS011;6995;52.618;13.488;2023-04-08T10:00:53;45.57;;;41.20;;
13849;SDS011;6995;52.618;13.488;2023-04-08T10:03:29;44.97;;;40.63;;
13849;SDS011;6995;52.618;13.488;2023-04-08T10:06:26;44.53;;;40.47;;
13849;SDS011;6995;52.618;13.488;2023-04-08T10:08:54;47.45;;;43.00;;
13849;SDS011;6995;52.618;13.488;2023-04-08T10:11:20;41.77;;;38.10;;
13849;SDS011;6995;52.618;13.488;2023-04-08T10:13:49;51.03;;;46.40;;
13849;SDS011;6995;52.618;13.488;2023-04-08T10:18:46;43.77;;;39.47;;
13849;SDS011;6995;52.618;13.488;2023-04-08T10:21:32;47.33;;;43.13;;
13849;SDS011;6995;52.618;13.488;2023-04-08T10:23:59;45.72;;;41.85;;
13849;SDS011;6995;52.618;13.488;2023-04-08T10:31:54;37.85;;;34.80;;
13849;SDS011;6995;52.618;13.488;2023-04-08T10:34:23;38.03;;;34.75;;
13849;SDS011;6995;52.618;13.488;2023-04-08T10:36:53;41.78;;;38.25;;
13849;SDS011;6995;52.618;13.488;2023-04-08T10:45:34;42.40;;;38.58;;
13849;SDS011;6995;52.618;13.488;2023-04-08T10:48:22;40.08;;;36.53;;
13849;SDS011;6995;52.618;13.488;2023-04-08T10:50:53;45.33;;;41.45;;
13849;SDS011;6995;52.618;13.488;2023-04-08T10:53:25;38.58;;;35.28;;
13849;SDS011;6995;52.618;13.488;2023-04-08T10:56:11;40.28;;;36.88;;
13849;SDS011;6995;52.618;13.488;2023-04-08T10:58:49;37.45;;;34.30;;
13849;SDS011;6995;52.618;13.488;2023-04-08T11:01:16;39.58;;;36.10;;
13849;SDS011;6995;52.618;13.488;2023-04-08T11:03:42;41.13;;;37.47;;
13849;SDS011;6995;52.618;13.488;2023-04-08T11:06:08;42.40;;;38.65;;
13849;SDS011;6995;52.618;13.488;2023-04-08T11:08:34;44.10;;;40.25;;
13849;SDS011;6995;52.618;13.488;2023-04-08T11:11:01;43.65;;;39.88;;
13849;SDS011;6995;52.618;13.488;2023-04-08T11:13:28;39.85;;;35.97;;
13849;SDS011;6995;52.618;13.488;2023-04-08T11:15:55;42.10;;;38.33;;
13849;SDS011;6995;52.618;13.488;2023-04-08T11:18:22;43.72;;;39.83;;
13849;SDS011;6995;52.618;13.488;2023-04-08T11:20:51;41.67;;;37.97;;
13849;SDS011;6995;52.618;13.488;2023-04-08T11:23:17;43.53;;;39.95;;
13849;SDS011;6995;52.618;13.488;2023-04-08T11:25:44;41.53;;;38.22;;
13849;SDS011;6995;52.618;13.488;2023-04-08T11:28:11;41.75;;;38.20;;
13849;SDS011;6995;52.618;13.488;2023-04-08T11:30:38;44.05;;;40.40;;
13849;SDS011;6995;52.618;13.488;2023-04-08T11:33:05;38.88;;;35.38;;
13849;SDS011;6995;52.618;13.488;2023-04-08T11:35:32;44.05;;;40.17;;
13849;SDS011;6995;52.618;13.488;2023-04-08T11:37:58;43.17;;;39.25;;
13849;SDS011;6995;52.618;13.488;2023-04-08T11:40:24;40.33;;;36.63;;
13849;SDS011;6995;52.618;13.488;2023-04-08T11:42:50;41.63;;;38.03;;
13849;SDS011;6995;52.618;13.488;2023-04-08T11:45:18;42.95;;;38.97;;
13849;SDS011;6995;52.618;13.488;2023-04-08T11:47:47;47.03;;;43.25;;
13849;SDS011;6995;52.618;13.488;2023-04-08T11:50:23;43.50;;;39.75;;
13849;SDS011;6995;52.618;13.488;2023-04-08T11:52:50;44.30;;;40.00;;
13849;SDS011;6995;52.618;13.488;2023-04-08T11:55:29;43.78;;;39.40;;
13849;SDS011;6995;52.618;13.488;2023-04-08T11:57:56;42.90;;;39.03;;
13849;SDS011;6995;52.618;13.488;2023-04-08T12:00:27;47.20;;;42.42;;
13849;SDS011;6995;52.618;13.488;2023-04-08T12:02:53;51.45;;;46.67;;
13849;SDS011;6995;52.618;13.488;2023-04-08T12:05:19;45.05;;;40.47;;
13849;SDS011;6995;52.618;13.488;2023-04-08T12:07:45;45.45;;;41.13;;
13849;SDS011;6995;52.618;13.488;2023-04-08T12:10:11;42.90;;;39.20;;
13849;SDS011;6995;52.618;13.488;2023-04-08T12:12:38;41.47;;;38.25;;
13849;SDS011;6995;52.618;13.488;2023-04-08T12:15:04;43.85;;;40.30;;
13849;SDS011;6995;52.618;13.488;2023-04-08T12:17:31;39.28;;;35.92;;
13849;SDS011;6995;52.618;13.488;2023-04-08T12:19:57;41.25;;;37.95;;
13849;SDS011;6995;52.618;13.488;2023-04-08T12:22:22;41.88;;;38.35;;
13849;SDS011;6995;52.618;13.488;2023-04-08T12:24:48;44.85;;;41.25;;
13849;SDS011;6995;52.618;13.488;2023-04-08T12:27:14;45.65;;;42.22;;
13849;SDS011;6995;52.618;13.488;2023-04-08T12:29:40;44.53;;;41.17;;
13849;SDS011;6995;52.618;13.488;2023-04-08T12:32:05;43.05;;;39.85;;
13849;SDS011;6995;52.618;13.488;2023-04-08T12:34:31;45.90;;;42.25;;
13849;SDS011;6995;52.618;13.488;2023-04-08T12:36:57;47.83;;;44.42;;
13849;SDS011;6995;52.618;13.488;2023-04-08T12:39:23;42.67;;;39.67;;
13849;SDS011;6995;52.618;13.488;2023-04-08T12:41:49;43.20;;;40.05;;
13849;SDS011;6995;52.618;13.488;2023-04-08T12:44:15;47.45;;;44.22;;
13849;SDS011;6995;52.618;13.488;2023-04-08T12:46:41;45.83;;;42.53;;
13849;SDS011;6995;52.618;13.488;2023-04-08T12:49:06;45.80;;;42.47;;
13849;SDS011;6995;52.618;13.488;2023-04-08T12:51:33;40.75;;;37.67;;
13849;SDS011;6995;52.618;13.488;2023-04-08T12:53:59;41.65;;;38.38;;
13849;SDS011;6995;52.618;13.488;2023-04-08T12:56:28;40.58;;;37.40;;
13849;SDS011;6995;52.618;13.488;2023-04-08T12:58:55;38.85;;;36.00;;
13849;SDS011;6995;52.618;13.488;2023-04-08T13:01:21;37.10;;;34.40;;
13849;SDS011;6995;52.618;13.488;2023-04-08T13:03:47;35.72;;;32.95;;
13849;SDS011;6995;52.618;13.488;2023-04-08T13:06:13;37.17;;;34.47;;
13849;SDS011;6995;52.618;13.488;2023-04-08T13:08:39;35.70;;;33.08;;
13849;SDS011;6995;52.618;13.488;2023-04-08T13:11:06;36.58;;;33.92;;
13849;SDS011;6995;52.618;13.488;2023-04-08T13:13:32;33.80;;;31.25;;
13849;SDS011;6995;52.618;13.488;2023-04-08T13:15:58;37.25;;;34.45;;
13849;SDS011;6995;52.618;13.488;2023-04-08T13:18:23;34.63;;;32.22;;
13849;SDS011;6995;52.618;13.488;2023-04-08T13:20:49;35.78;;;33.38;;
13849;SDS011;6995;52.618;13.488;2023-04-08T13:23:15;35.97;;;33.45;;
13849;SDS011;6995;52.618;13.488;2023-04-08T13:25:42;34.83;;;32.47;;
13849;SDS011;6995;52.618;13.488;2023-04-08T13:28:09;35.97;;;33.33;;
13849;SDS011;6995;52.618;13.488;2023-04-08T13:30:35;36.25;;;33.38;;
13849;SDS011;6995;52.618;13.488;2023-04-08T13:33:01;38.50;;;35.65;;
13849;SDS011;6995;52.618;13.488;2023-04-08T13:35:27;39.15;;;36.55;;
13849;SDS011;6995;52.618;13.488;2023-04-08T13:37:52;33.70;;;31.60;;
13849;SDS011;6995;52.618;13.488;2023-04-08T13:40:18;33.38;;;31.20;;
13849;SDS011;6995;52.618;13.488;2023-04-08T13:42:45;30.08;;;28.08;;
13849;SDS011;6995;52.618;13.488;2023-04-08T13:45:12;34.15;;;31.65;;
13849;SDS011;6995;52.618;13.488;2023-04-08T13:47:38;29.13;;;27.20;;
13849;SDS011;6995;52.618;13.488;2023-04-08T13:50:04;33.17;;;30.60;;
13849;SDS011;6995;52.618;13.488;2023-04-08T13:52:30;32.70;;;30.50;;
13849;SDS011;6995;52.618;13.488;2023-04-08T13:54:56;32.10;;;30.00;;
13849;SDS011;6995;52.618;13.488;2023-04-08T13:57:22;29.35;;;27.45;;
13849;SDS011;6995;52.618;13.488;2023-04-08T13:59:47;29.75;;;27.75;;
13849;SDS011;6995;52.618;13.488;2023-04-08T14:02:13;30.77;;;28.77;;
13849;SDS011;6995;52.618;13.488;2023-04-08T14:04:39;30.00;;;28.10;;
13849;SDS011;6995;52.618;13.488;2023-04-08T14:07:04;30.05;;;28.02;;
13849;SDS011;6995;52.618;13.488;2023-04-08T14:09:30;31.35;;;29.30;;
13849;SDS011;6995;52.618;13.488;2023-04-08T14:11:56;29.67;;;27.77;;
13849;SDS011;6995;52.618;13.488;2023-04-08T14:14:32;30.38;;;28.40;;
13849;SDS011;6995;52.618;13.488;2023-04-08T14:16:57;31.52;;;29.50;;
13849;SDS011;6995;52.618;13.488;2023-04-08T14:19:23;32.75;;;30.42;;
13849;SDS011;6995;52.618;13.488;2023-04-08T14:21:49;29.67;;;27.67;;
13849;SDS011;6995;52.618;13.488;2023-04-08T14:24:14;28.98;;;27.05;;
13849;SDS011;6995;52.618;13.488;2023-04-08T14:26:43;26.83;;;25.23;;
13849;SDS011;6995;52.618;13.488;2023-04-08T14:29:09;28.20;;;26.27;;
13849;SDS011;6995;52.618;13.488;2023-04-08T14:31:35;28.23;;;26.55;;
13849;SDS011;6995;52.618;13.488;2023-04-08T14:34:01;28.23;;;26.42;;
13849;SDS011;6995;52.618;13.488;2023-04-08T14:36:30;30.77;;;28.80;;
13849;SDS011;6995;52.618;13.488;2023-04-08T14:38:56;28.00;;;26.20;;
13849;SDS011;6995;52.618;13.488;2023-04-08T14:41:22;31.40;;;29.27;;
13849;SDS011;6995;52.618;13.488;2023-04-08T14:43:50;28.65;;;26.77;;
13849;SDS011;6995;52.618;13.488;2023-04-08T14:46:16;31.73;;;29.63;;
13849;SDS011;6995;52.618;13.488;2023-04-08T14:48:41;28.58;;;26.77;;
13849;SDS011;6995;52.618;13.488;2023-04-08T14:51:07;29.90;;;27.90;;
13849;SDS011;6995;52.618;13.488;2023-04-08T14:53:33;31.48;;;29.48;;
13849;SDS011;6995;52.618;13.488;2023-04-08T14:55:58;31.38;;;29.40;;
13849;SDS011;6995;52.618;13.488;2023-04-08T14:58:24;33.58;;;31.45;;
13849;SDS011;6995;52.618;13.488;2023-04-08T15:00:50;33.00;;;30.77;;
13849;SDS011;6995;52.618;13.488;2023-04-08T15:03:16;34.38;;;31.77;;
13849;SDS011;6995;52.618;13.488;2023-04-08T15:05:42;33.72;;;31.45;;
13849;SDS011;6995;52.618;13.488;2023-04-08T15:08:09;32.90;;;30.80;;
13849;SDS011;6995;52.618;13.488;2023-04-08T15:10:35;32.80;;;30.38;;
13849;SDS011;6995;52.618;13.488;2023-04-08T15:13:01;33.33;;;31.08;;
13849;SDS011;6995;52.618;13.488;2023-04-08T15:15:26;31.33;;;29.33;;
13849;SDS011;6995;52.618;13.488;2023-04-08T15:17:52;32.15;;;30.15;;
13849;SDS011;6995;52.618;13.488;2023-04-08T15:20:17;35.20;;;33.00;;
13849;SDS011;6995;52.618;13.488;2023-04-08T15:22:44;31.73;;;29.85;;
13849;SDS011;6995;52.618;13.488;2023-04-08T15:25:10;34.38;;;31.90;;
13849;SDS011;6995;52.618;13.488;2023-04-08T15:27:40;33.40;;;31.20;;
13849;SDS011;6995;52.618;13.488;2023-04-08T15:30:06;31.90;;;29.60;;
13849;SDS011;6995;52.618;13.488;2023-04-08T15:32:32;29.73;;;27.83;;
13849;SDS011;6995;52.618;13.488;2023-04-08T15:34:58;34.38;;;31.98;;
13849;SDS011;6995;52.618;13.488;2023-04-08T15:37:24;33.05;;;30.95;;
13849;SDS011;6995;52.618;13.488;2023-04-08T15:39:50;32.55;;;30.20;;
13849;SDS011;6995;52.618;13.488;2023-04-08T15:42:19;31.80;;;29.70;;
13849;SDS011;6995;52.618;13.488;2023-04-08T15:44:45;37.20;;;34.67;;
13849;SDS011;6995;52.618;13.488;2023-04-08T15:47:11;29.77;;;27.80;;
13849;SDS011;6995;52.618;13.488;2023-04-08T15:49:37;33.38;;;31.25;;
13849;SDS011;6995;52.618;13.488;2023-04-08T15:52:03;31.80;;;29.60;;
13849;SDS011;6995;52.618;13.488;2023-04-08T15:54:29;29.35;;;27.55;;
13849;SDS011;6995;52.618;13.488;2023-04-08T15:56:56;28.95;;;27.05;;
13849;SDS011;6995;52.618;13.488;2023-04-08T15:59:22;29.23;;;27.25;;
13849;SDS011;6995;52.618;13.488;2023-04-08T16:01:47;29.42;;;27.48;;
13849;SDS011;6995;52.618;13.488;2023-04-08T16:04:13;30.77;;;28.77;;
13849;SDS011;6995;52.618;13.488;2023-04-08T16:06:40;28.00;;;26.10;;
13849;SDS011;6995;52.618;13.488;2023-04-08T16:09:05;27.63;;;25.70;;
13849;SDS011;6995;52.618;13.488;2023-04-08T16:11:32;29.05;;;27.05;;
13849;SDS011;6995;52.618;13.488;2023-04-08T16:13:58;29.05;;;26.95;;
13849;SDS011;6995;52.618;13.488;2023-04-08T16:16:24;29.10;;;27.08;;
13849;SDS011;6995;52.618;13.488;2023-04-08T16:18:49;27.83;;;26.02;;
13849;SDS011;6995;52.618;13.488;2023-04-08T16:21:16;30.75;;;28.67;;
13849;SDS011;6995;52.618;13.488;2023-04-08T16:23:43;32.42;;;30.35;;
13849;SDS011;6995;52.618;13.488;2023-04-08T16:26:08;34.38;;;31.77;;
13849;SDS011;6995;52.618;13.488;2023-04-08T16:28:35;33.95;;;31.65;;
13849;SDS011;6995;52.618;13.488;2023-04-08T16:31:02;33.05;;;30.85;;
13849;SDS011;6995;52.618;13.488;2023-04-08T16:33:28;29.75;;;27.85;;
13849;SDS011;6995;52.618;13.488;2023-04-08T16:35:58;38.28;;;35.28;;
13849;SDS011;6995;52.618;13.488;2023-04-08T16:38:24;30.55;;;28.35;;
13849;SDS011;6995;52.618;13.488;2023-04-08T16:40:51;33.15;;;30.88;;
13849;SDS011;6995;52.618;13.488;2023-04-08T16:43:20;31.65;;;29.35;;
13849;SDS011;6995;52.618;13.488;2023-04-08T16:45:46;34.17;;;31.55;;
13849;SDS011;6995;52.618;13.488;2023-04-08T16:48:12;32.20;;;30.10;;
13849;SDS011;6995;52.618;13.488;2023-04-08T16:50:41;36.63;;;34.33;;
13849;SDS011;6995;52.618;13.488;2023-04-08T16:53:06;36.88;;;34.58;;
13849;SDS011;6995;52.618;13.488;2023-04-08T16:55:35;51.28;;;47.97;;
13849;SDS011;6995;52.618;13.488;2023-04-08T16:58:09;50.67;;;47.60;;
13849;SDS011;6995;52.618;13.488;2023-04-08T17:00:34;45.72;;;42.80;;
13849;SDS011;6995;52.618;13.488;2023-04-08T17:03:00;41.38;;;38.78;;
13849;SDS011;6995;52.618;13.488;2023-04-08T17:05:26;40.75;;;38.05;;
13849;SDS011;6995;52.618;13.488;2023-04-08T17:07:52;33.42;;;31.13;;
13849;SDS011;6995;52.618;13.488;2023-04-08T17:10:21;37.53;;;34.90;;
13849;SDS011;6995;52.618;13.488;2023-04-08T17:12:57;34.38;;;31.98;;
13849;SDS011;6995;52.618;13.488;2023-04-08T17:15:23;37.13;;;34.35;;
13849;SDS011;6995;52.618;13.488;2023-04-08T17:17:49;37.63;;;34.90;;
13849;SDS011;6995;52.618;13.488;2023-04-08T17:20:15;35.72;;;33.00;;
13849;SDS011;6995;52.618;13.488;2023-04-08T17:22:43;37.97;;;34.87;;
13849;SDS011;6995;52.618;13.488;2023-04-08T17:25:09;39.38;;;36.17;;
13849;SDS011;6995;52.618;13.488;2023-04-08T17:27:35;37.22;;;33.95;;
13849;SDS011;6995;52.618;13.488;2023-04-08T17:30:01;36.23;;;33.43;;
13849;SDS011;6995;52.618;13.488;2023-04-08T17:32:26;49.40;;;45.13;;
13849;SDS011;6995;52.618;13.488;2023-04-08T17:34:52;36.90;;;34.25;;
13849;SDS011;6995;52.618;13.488;2023-04-08T17:37:18;36.80;;;34.07;;
13849;SDS011;6995;52.618;13.488;2023-04-08T17:39:44;46.87;;;43.87;;
13849;SDS011;6995;52.618;13.488;2023-04-08T17:42:09;37.87;;;34.87;;
13849;SDS011;6995;52.618;13.488;2023-04-08T17:44:35;44.97;;;41.20;;
13849;SDS011;6995;52.618;13.488;2023-04-08T17:47:02;40.10;;;37.00;;
13849;SDS011;6995;52.618;13.488;2023-04-08T17:49:28;45.20;;;41.90;;
13849;SDS011;6995;52.618;13.488;2023-04-08T17:51:54;48.47;;;44.53;;
13849;SDS011;6995;52.618;13.488;2023-04-08T17:54:20;43.90;;;40.50;;
13849;SDS011;6995;52.618;13.488;2023-04-08T17:56:46;44.67;;;41.07;;
13849;SDS011;6995;52.618;13.488;2023-04-08T17:59:12;47.23;;;43.43;;
13849;SDS011;6995;52.618;13.488;2023-04-08T18:01:37;41.37;;;38.17;;
13849;SDS011;6995;52.618;13.488;2023-04-08T18:04:03;43.20;;;39.73;;
13849;SDS011;6995;52.618;13.488;2023-04-08T18:06:35;41.07;;;37.87;;
13849;SDS011;6995;52.618;13.488;2023-04-08T18:09:01;43.47;;;39.50;;
13849;SDS011;6995;52.618;13.488;2023-04-08T18:11:29;42.50;;;38.97;;
13849;SDS011;6995;52.618;13.488;2023-04-08T18:13:55;42.77;;;39.07;;
13849;SDS011;6995;52.618;13.488;2023-04-08T18:16:21;42.37;;;38.93;;
13849;SDS011;6995;52.618;13.488;2023-04-08T18:18:47;45.00;;;41.20;;
13849;SDS011;6995;52.618;13.488;2023-04-08T18:21:13;48.30;;;44.03;;
13849;SDS011;6995;52.618;13.488;2023-04-08T18:23:43;44.17;;;40.47;;